Time;durP1;ratioP1;P1;durP2;ratioP2;P2;SDS_P1;SDS_P2;PMS_P1;PMS_P2;Temp;Humidity;BMP_temperature;BMP_pressure;BME280_temperature;BME280_humidity;BME280_pressure;Samples;Min_cycle;Max_cycle;Signal;HPM_P1;HPM_P2
2022/11/06 00:00:34;;;;;;;;;;;10.00;99.90;;;;;;5025040;28;19924;-67
2022/11/06 00:02:59;;;;;;;;;;;10.00;99.90;;;;;;5027310;28;19970;-67
2022/11/06 00:08:10;;;;;;;;;;;10.00;99.90;;;;;;5025408;28;20010;-67
2022/11/06 00:10:36;;;;;;;;;;;10.00;99.90;;;;;;5025182;28;20007;-68
2022/11/06 00:13:01;;;;;;;;;;;10.00;99.90;;;;;;5029336;28;19932;-68
2022/11/06 00:15:27;;;;;;;;;;;10.00;99.90;;;;;;5028737;28;20001;-68
2022/11/06 00:17:52;;;;;;;;;;;10.00;99.90;;;;;;5029582;28;19925;-68
2022/11/06 00:20:18;;;;;;;;;;;9.90;99.90;;;;;;5031018;28;20357;-68
2022/11/06 00:22:43;;;;;;;;;;;10.00;99.90;;;;;;5024867;28;19921;-68
2022/11/06 00:25:09;;;;;;;;;;;10.00;99.90;;;;;;5025772;28;19925;-68
2022/11/06 00:27:39;;;;;;;;;;;9.90;99.90;;;;;;5028827;28;20381;-67
2022/11/06 00:30:05;;;;;;;;;;;9.90;99.90;;;;;;5028049;28;19921;-68
2022/11/06 00:32:31;;;;;;;;;;;9.90;99.90;;;;;;5032665;28;19928;-68
2022/11/06 00:34:56;;;;;;;;;;;9.90;99.90;;;;;;5025425;28;19925;-68
2022/11/06 00:37:22;;;;;;;;;;;9.90;99.90;;;;;;5028439;28;19929;-68
2022/11/06 00:39:47;;;;;;;;;;;9.90;99.90;;;;;;5026294;28;19975;-67
2022/11/06 00:42:13;;;;;;;;;;;9.90;99.90;;;;;;5028268;28;19928;-67
2022/11/06 00:44:38;;;;;;;;;;;9.90;99.90;;;;;;5032702;28;19964;-67
2022/11/06 00:47:04;;;;;;;;;;;9.80;99.90;;;;;;5032816;28;19932;-67
2022/11/06 00:49:29;;;;;;;;;;;9.80;99.90;;;;;;5032998;28;20012;-67
2022/11/06 00:51:55;;;;;;;;;;;9.80;99.90;;;;;;5028639;28;19921;-67
2022/11/06 00:54:20;;;;;;;;;;;9.70;99.90;;;;;;5031352;28;20004;-67
2022/11/06 00:56:46;;;;;;;;;;;9.60;99.90;;;;;;5033332;28;19925;-67
2022/11/06 00:59:12;;;;;;;;;;;9.60;99.90;;;;;;5030905;28;19929;-67
2022/11/06 01:01:42;;;;;;;;;;;9.60;99.90;;;;;;5014184;28;19921;-68
2022/11/06 01:04:13;;;;;;;;;;;9.60;99.90;;;;;;5028281;28;19929;-67
2022/11/06 01:06:39;;;;;;;;;;;9.60;99.90;;;;;;5033084;28;19964;-67
2022/11/06 01:09:05;;;;;;;;;;;9.60;99.90;;;;;;5032695;28;19921;-67
2022/11/06 01:11:36;;;;;;;;;;;9.60;99.90;;;;;;5033075;28;20421;-67
2022/11/06 01:14:02;;;;;;;;;;;9.60;99.90;;;;;;5032406;28;19921;-68
2022/11/06 01:16:28;;;;;;;;;;;9.50;99.90;;;;;;5032783;28;20387;-67
2022/11/06 01:18:54;;;;;;;;;;;9.60;99.90;;;;;;5031052;28;19925;-67
2022/11/06 01:21:21;;;;;;;;;;;9.50;99.90;;;;;;5015684;28;19921;-67
2022/11/06 01:23:50;;;;;;;;;;;9.50;99.90;;;;;;5016304;28;19932;-67
2022/11/06 01:26:16;;;;;;;;;;;9.50;99.90;;;;;;5034963;28;19925;-67
2022/11/06 01:28:41;;;;;;;;;;;9.50;99.90;;;;;;5032249;28;19936;-67
2022/11/06 01:31:12;;;;;;;;;;;9.50;99.90;;;;;;5034761;28;19966;-67
2022/11/06 01:33:38;;;;;;;;;;;9.50;99.90;;;;;;5029445;28;19925;-67
2022/11/06 01:36:04;;;;;;;;;;;9.50;99.90;;;;;;5029692;28;20252;-67
2022/11/06 01:38:30;;;;;;;;;;;9.50;99.90;;;;;;5030532;28;19929;-67
2022/11/06 01:40:55;;;;;;;;;;;9.50;99.90;;;;;;5031978;28;20286;-67
2022/11/06 01:43:22;;;;;;;;;;;9.40;99.90;;;;;;5033708;28;19974;-67
2022/11/06 01:45:49;;;;;;;;;;;9.40;99.90;;;;;;5031259;28;19932;-67
2022/11/06 01:48:16;;;;;;;;;;;9.40;99.90;;;;;;5033619;28;19921;-67
2022/11/06 01:50:43;;;;;;;;;;;9.40;99.90;;;;;;5033947;28;19928;-67
2022/11/06 01:53:09;;;;;;;;;;;9.50;99.90;;;;;;5028864;28;19971;-67
2022/11/06 01:55:37;;;;;;;;;;;9.50;99.90;;;;;;5032631;28;19924;-68
2022/11/06 01:58:04;;;;;;;;;;;9.40;99.90;;;;;;5032278;28;20282;-68
2022/11/06 02:00:31;;;;;;;;;;;9.40;99.90;;;;;;5031317;28;19921;-68
2022/11/06 02:02:57;;;;;;;;;;;9.40;99.90;;;;;;5012150;28;19925;-67
2022/11/06 02:05:22;;;;;;;;;;;9.40;99.90;;;;;;5026133;28;20873;-67
2022/11/06 02:07:48;;;;;;;;;;;9.40;99.90;;;;;;5030509;28;19921;-67
2022/11/06 02:10:14;;;;;;;;;;;9.40;99.90;;;;;;5029855;28;19929;-67
2022/11/06 02:12:50;;;;;;;;;;;9.40;99.90;;;;;;5033785;28;19921;-67
2022/11/06 02:15:26;;;;;;;;;;;9.40;99.90;;;;;;5028825;28;20011;-67
2022/11/06 02:18:04;;;;;;;;;;;9.40;99.90;;;;;;5031589;28;19925;-68
2022/11/06 02:20:51;;;;;;;;;;;9.40;99.90;;;;;;5029649;28;19929;-68
2022/11/06 02:23:39;;;;;;;;;;;9.40;99.90;;;;;;5032120;28;19921;-67
2022/11/06 02:26:24;;;;;;;;;;;9.30;99.90;;;;;;5027152;28;19935;-67
2022/11/06 02:28:51;;;;;;;;;;;9.30;99.90;;;;;;5033134;28;19921;-68
2022/11/06 02:31:22;;;;;;;;;;;9.30;99.90;;;;;;5030691;28;20004;-68
2022/11/06 02:33:58;;;;;;;;;;;9.30;99.90;;;;;;5031341;28;20279;-68
2022/11/06 02:36:28;;;;;;;;;;;9.30;99.90;;;;;;5030670;28;19933;-67
2022/11/06 02:38:55;;;;;;;;;;;9.30;99.90;;;;;;5029750;28;20389;-68
2022/11/06 02:41:23;;;;;;;;;;;9.30;99.90;;;;;;5031326;28;19925;-68
2022/11/06 02:43:51;;;;;;;;;;;9.30;99.90;;;;;;5030639;28;19956;-68
2022/11/06 02:46:16;;;;;;;;;;;9.30;99.90;;;;;;5031357;28;20322;-68
2022/11/06 02:48:47;;;;;;;;;;;9.30;99.90;;;;;;5030647;28;19937;-68
2022/11/06 02:51:15;;;;;;;;;;;9.30;99.90;;;;;;5013279;28;20372;-68
2022/11/06 02:53:42;;;;;;;;;;;9.30;99.90;;;;;;5024712;23;20539;-67
2022/11/06 02:56:10;;;;;;;;;;;9.20;99.90;;;;;;5012997;28;20040;-67
2022/11/06 02:58:36;;;;;;;;;;;9.20;99.90;;;;;;5013660;28;19924;-68
2022/11/06 03:01:03;;;;;;;;;;;9.20;99.90;;;;;;5013467;28;20262;-67
2022/11/06 03:03:30;;;;;;;;;;;9.20;99.90;;;;;;5029697;28;20366;-67
2022/11/06 03:06:05;;;;;;;;;;;9.20;99.90;;;;;;4997217;28;20282;-67
2022/11/06 03:08:34;;;;;;;;;;;9.30;99.90;;;;;;5019706;28;19929;-67
2022/11/06 03:11:21;;;;;;;;;;;9.20;99.90;;;;;;5016208;28;19932;-67
2022/11/06 03:13:46;;;;;;;;;;;9.20;99.90;;;;;;5027804;28;19921;-67
2022/11/06 03:16:17;;;;;;;;;;;9.20;99.90;;;;;;5029255;28;19921;-67
2022/11/06 03:18:52;;;;;;;;;;;9.20;99.90;;;;;;5032669;28;19921;-67
2022/11/06 03:21:26;;;;;;;;;;;9.20;99.90;;;;;;5013690;28;19947;-68
2022/11/06 03:24:06;;;;;;;;;;;9.10;99.90;;;;;;5011727;28;19921;-67
2022/11/06 03:26:34;;;;;;;;;;;9.20;99.90;;;;;;5016551;28;20294;-67
2022/11/06 03:29:11;;;;;;;;;;;9.20;99.90;;;;;;5029325;28;19929;-67
2022/11/06 03:31:57;;;;;;;;;;;9.10;99.90;;;;;;5018800;28;19971;-67
2022/11/06 03:34:26;;;;;;;;;;;9.20;99.90;;;;;;5004750;28;19964;-68
2022/11/06 03:36:55;;;;;;;;;;;9.10;99.90;;;;;;5012660;28;19971;-67
2022/11/06 03:39:25;;;;;;;;;;;9.20;99.90;;;;;;5004764;28;19937;-67
2022/11/06 03:41:52;;;;;;;;;;;9.20;99.90;;;;;;5029346;28;19971;-67
2022/11/06 03:44:20;;;;;;;;;;;9.20;99.90;;;;;;5011881;28;20394;-67
2022/11/06 03:46:52;;;;;;;;;;;9.20;99.90;;;;;;5027268;28;20367;-68
2022/11/06 03:49:21;;;;;;;;;;;9.20;99.90;;;;;;5030561;28;19925;-67
2022/11/06 03:51:59;;;;;;;;;;;9.10;99.90;;;;;;5011605;28;19920;-67
2022/11/06 03:54:24;;;;;;;;;;;9.10;99.90;;;;;;5020279;28;20015;-67
2022/11/06 03:57:01;;;;;;;;;;;9.10;99.90;;;;;;4996028;28;20012;-68
2022/11/06 03:59:28;;;;;;;;;;;9.20;99.90;;;;;;5008015;28;19925;-67
2022/11/06 04:01:55;;;;;;;;;;;9.10;99.90;;;;;;5009014;28;19929;-68
2022/11/06 04:04:23;;;;;;;;;;;9.10;99.90;;;;;;5025589;28;19927;-67
2022/11/06 04:06:56;;;;;;;;;;;9.10;99.90;;;;;;5013966;28;20310;-67
2022/11/06 04:14:55;;;;;;;;;;;9.10;99.90;;;;;;5012875;28;20049;-67
2022/11/06 04:17:22;;;;;;;;;;;9.10;99.90;;;;;;5011632;28;20340;-68
2022/11/06 04:19:50;;;;;;;;;;;9.10;99.90;;;;;;5014236;28;19928;-68
2022/11/06 04:22:24;;;;;;;;;;;9.10;99.90;;;;;;5019910;28;19970;-67
2022/11/06 04:27:46;;;;;;;;;;;9.20;99.90;;;;;;5011171;28;19928;-68
2022/11/06 04:30:16;;;;;;;;;;;9.10;99.90;;;;;;5027627;28;19925;-68
2022/11/06 04:32:48;;;;;;;;;;;9.10;99.90;;;;;;5012765;28;19921;-67
2022/11/06 04:35:21;;;;;;;;;;;9.10;99.90;;;;;;5013871;28;20161;-68
2022/11/06 04:37:47;;;;;;;;;;;9.10;99.90;;;;;;5010593;28;19972;-68
2022/11/06 04:40:25;;;;;;;;;;;9.10;99.90;;;;;;5012033;28;20010;-68
2022/11/06 04:42:57;;;;;;;;;;;9.10;99.90;;;;;;5013131;28;20382;-68
2022/11/06 04:45:24;;;;;;;;;;;9.10;99.90;;;;;;5012570;28;19928;-68
2022/11/06 04:47:51;;;;;;;;;;;9.10;99.90;;;;;;5013413;28;20347;-68
2022/11/06 04:50:17;;;;;;;;;;;9.10;99.90;;;;;;5013772;28;19925;-68
2022/11/06 04:52:43;;;;;;;;;;;9.10;99.90;;;;;;4995578;28;20385;-68
2022/11/06 04:55:09;;;;;;;;;;;9.10;99.90;;;;;;5010175;28;19940;-67
2022/11/06 04:57:34;;;;;;;;;;;9.20;99.90;;;;;;5028242;28;20344;-67
2022/11/06 05:00:00;;;;;;;;;;;9.20;99.90;;;;;;5012816;28;19925;-67
2022/11/06 05:02:25;;;;;;;;;;;9.20;99.90;;;;;;5011151;28;19932;-67
2022/11/06 05:04:50;;;;;;;;;;;9.20;99.90;;;;;;5031407;28;19980;-68
2022/11/06 05:07:16;;;;;;;;;;;9.20;99.90;;;;;;5000891;28;19929;-67
2022/11/06 05:09:42;;;;;;;;;;;9.20;99.90;;;;;;5030604;28;19922;-67
2022/11/06 05:12:08;;;;;;;;;;;9.20;99.90;;;;;;5011299;28;20015;-67
2022/11/06 05:14:33;;;;;;;;;;;9.20;99.90;;;;;;5030418;28;19929;-68
2022/11/06 05:16:59;;;;;;;;;;;9.20;99.90;;;;;;5031461;28;19925;-67
2022/11/06 05:19:24;;;;;;;;;;;9.20;99.90;;;;;;5011504;28;19925;-68
2022/11/06 05:24:34;;;;;;;;;;;9.20;99.90;;;;;;5030946;28;20342;-68
2022/11/06 05:26:59;;;;;;;;;;;9.20;99.90;;;;;;5010527;28;19925;-67
2022/11/06 05:29:25;;;;;;;;;;;9.20;99.90;;;;;;5015686;28;19928;-67
2022/11/06 05:31:50;;;;;;;;;;;9.20;99.90;;;;;;5014573;28;19924;-67
2022/11/06 05:34:15;;;;;;;;;;;9.20;99.90;;;;;;5013132;28;20386;-67
2022/11/06 05:36:41;;;;;;;;;;;9.20;99.90;;;;;;5014063;28;19929;-68
2022/11/06 05:39:06;;;;;;;;;;;9.20;99.90;;;;;;5016768;28;20236;-67
2022/11/06 05:41:32;;;;;;;;;;;9.20;99.90;;;;;;5015411;28;19924;-67
2022/11/06 05:43:57;;;;;;;;;;;9.20;99.90;;;;;;5012851;28;19925;-67
2022/11/06 05:46:23;;;;;;;;;;;9.20;99.90;;;;;;5014561;28;20781;-68
2022/11/06 05:48:48;;;;;;;;;;;9.20;99.90;;;;;;5015488;28;19927;-68
2022/11/06 05:51:14;;;;;;;;;;;9.10;99.90;;;;;;5031733;28;20068;-68
2022/11/06 05:53:39;;;;;;;;;;;9.20;99.90;;;;;;5032205;28;20004;-69
2022/11/06 05:56:05;;;;;;;;;;;9.20;99.90;;;;;;5014585;28;20064;-68
2022/11/06 05:58:31;;;;;;;;;;;9.20;99.90;;;;;;5013099;28;19933;-67
2022/11/06 06:00:56;;;;;;;;;;;9.20;99.90;;;;;;5012481;28;19925;-68
2022/11/06 06:03:22;;;;;;;;;;;9.20;99.90;;;;;;5027109;28;19932;-67
2022/11/06 06:05:48;;;;;;;;;;;9.20;99.90;;;;;;5012599;28;19927;-67
2022/11/06 06:08:14;;;;;;;;;;;9.20;99.90;;;;;;5026616;28;19929;-68
2022/11/06 06:10:43;;;;;;;;;;;9.20;99.90;;;;;;5016053;28;20366;-67
2022/11/06 06:13:09;;;;;;;;;;;9.20;99.90;;;;;;5016109;28;20015;-68
2022/11/06 06:15:36;;;;;;;;;;;9.30;99.90;;;;;;5014148;28;20008;-67
2022/11/06 06:18:01;;;;;;;;;;;9.30;99.90;;;;;;5015958;28;19929;-68
2022/11/06 06:20:27;;;;;;;;;;;9.20;99.90;;;;;;5033376;28;20002;-68
2022/11/06 06:22:53;;;;;;;;;;;9.20;99.90;;;;;;5016313;28;19943;-67
2022/11/06 06:25:19;;;;;;;;;;;9.20;99.90;;;;;;5015976;28;19957;-68
2022/11/06 06:27:44;;;;;;;;;;;9.20;99.90;;;;;;5033651;28;19980;-67
2022/11/06 06:30:10;;;;;;;;;;;9.20;99.90;;;;;;5016068;28;19925;-67
2022/11/06 06:32:36;;;;;;;;;;;9.20;99.90;;;;;;5017048;28;19921;-67
2022/11/06 06:35:01;;;;;;;;;;;9.20;99.90;;;;;;5028627;28;19960;-67
2022/11/06 06:37:27;;;;;;;;;;;9.30;99.90;;;;;;5015792;28;19921;-68
2022/11/06 06:39:52;;;;;;;;;;;9.30;99.90;;;;;;5013471;28;20298;-68
2022/11/06 06:42:18;;;;;;;;;;;9.30;99.90;;;;;;5015603;28;20329;-67
2022/11/06 06:44:43;;;;;;;;;;;9.30;99.90;;;;;;5014798;28;19929;-67
2022/11/06 06:47:09;;;;;;;;;;;9.30;99.90;;;;;;5034285;28;20259;-68
2022/11/06 06:49:35;;;;;;;;;;;9.30;99.90;;;;;;5015535;28;19925;-67
2022/11/06 06:52:00;;;;;;;;;;;9.30;99.90;;;;;;5013531;28;19965;-68
2022/11/06 06:54:26;;;;;;;;;;;9.40;99.90;;;;;;5032818;28;20421;-68
2022/11/06 06:56:51;;;;;;;;;;;9.30;99.90;;;;;;5014401;28;19929;-67
2022/11/06 06:59:17;;;;;;;;;;;9.40;99.90;;;;;;5013971;28;19921;-67
2022/11/06 07:01:42;;;;;;;;;;;9.50;99.90;;;;;;5011666;28;19936;-68
2022/11/06 07:04:09;;;;;;;;;;;9.50;99.90;;;;;;4998336;28;19972;-68
2022/11/06 07:06:34;;;;;;;;;;;9.50;99.90;;;;;;5024267;28;19979;-67
2022/11/06 07:09:00;;;;;;;;;;;9.50;99.90;;;;;;5012594;28;19921;-67
2022/11/06 07:11:25;;;;;;;;;;;9.60;99.90;;;;;;5032758;28;19922;-67
2022/11/06 07:13:50;;;;;;;;;;;9.60;99.90;;;;;;5013931;28;20059;-67
2022/11/06 07:16:16;;;;;;;;;;;9.60;99.90;;;;;;5013902;28;19928;-67
2022/11/06 07:18:41;;;;;;;;;;;9.70;99.90;;;;;;5014548;28;19929;-67
2022/11/06 07:21:08;;;;;;;;;;;9.70;99.90;;;;;;5031553;28;19928;-68
2022/11/06 07:23:34;;;;;;;;;;;9.70;99.90;;;;;;5014480;28;19920;-67
2022/11/06 07:26:00;;;;;;;;;;;9.80;99.90;;;;;;5016545;28;19968;-67
2022/11/06 07:28:26;;;;;;;;;;;9.80;99.90;;;;;;5032354;28;19933;-68
2022/11/06 07:30:51;;;;;;;;;;;9.90;99.90;;;;;;5011572;28;19929;-68
2022/11/06 07:33:17;;;;;;;;;;;9.90;99.90;;;;;;5013612;28;19991;-68
2022/11/06 07:35:43;;;;;;;;;;;10.00;99.90;;;;;;5012511;28;19921;-67
2022/11/06 07:38:08;;;;;;;;;;;10.00;99.90;;;;;;5013211;28;20019;-67
2022/11/06 07:40:34;;;;;;;;;;;10.00;99.90;;;;;;4997112;28;19929;-67
2022/11/06 07:43:04;;;;;;;;;;;10.10;99.90;;;;;;5012207;28;19925;-67
2022/11/06 07:45:29;;;;;;;;;;;10.10;99.90;;;;;;5013603;28;20276;-67
2022/11/06 07:47:55;;;;;;;;;;;10.10;99.90;;;;;;5031910;28;19952;-66
2022/11/06 07:50:21;;;;;;;;;;;10.20;99.90;;;;;;5005125;28;19921;-66
2022/11/06 07:52:46;;;;;;;;;;;10.20;99.90;;;;;;5023625;28;19932;-67
2022/11/06 07:55:11;;;;;;;;;;;10.30;99.90;;;;;;5030505;28;19975;-66
2022/11/06 07:57:37;;;;;;;;;;;10.20;99.90;;;;;;5031130;28;20435;-67
2022/11/06 08:00:03;;;;;;;;;;;10.30;99.90;;;;;;5010429;28;20004;-67
2022/11/06 08:02:29;;;;;;;;;;;10.30;99.90;;;;;;5030781;28;19956;-67
2022/11/06 08:04:54;;;;;;;;;;;10.30;99.90;;;;;;5014026;28;20004;-67
2022/11/06 08:07:20;;;;;;;;;;;10.20;99.90;;;;;;5024737;28;19933;-67
2022/11/06 08:09:45;;;;;;;;;;;10.20;99.90;;;;;;4988826;28;20471;-66
2022/11/06 08:12:13;;;;;;;;;;;10.20;99.90;;;;;;5029013;28;19928;-67
2022/11/06 08:14:39;;;;;;;;;;;10.30;99.90;;;;;;5013950;28;19921;-67
2022/11/06 08:17:04;;;;;;;;;;;10.20;99.90;;;;;;5028401;28;19936;-67
2022/11/06 08:19:30;;;;;;;;;;;10.20;99.90;;;;;;5007790;28;19974;-65
2022/11/06 08:21:55;;;;;;;;;;;10.30;99.90;;;;;;5030677;28;20517;-66
2022/11/06 08:24:21;;;;;;;;;;;10.30;99.90;;;;;;5016311;28;19928;-66
2022/11/06 08:26:46;;;;;;;;;;;10.40;99.90;;;;;;5027986;28;20371;-66
2022/11/06 08:29:12;;;;;;;;;;;10.40;99.90;;;;;;5031958;28;19932;-65
2022/11/06 08:31:37;;;;;;;;;;;10.40;99.90;;;;;;5013950;28;19925;-66
2022/11/06 08:34:03;;;;;;;;;;;10.40;99.90;;;;;;5014127;28;19978;-66
2022/11/06 08:36:29;;;;;;;;;;;10.40;99.90;;;;;;5030788;28;19921;-66
2022/11/06 08:38:54;;;;;;;;;;;10.40;99.90;;;;;;5010741;28;19931;-67
2022/11/06 08:41:20;;;;;;;;;;;10.40;99.90;;;;;;5031082;28;20454;-67
2022/11/06 08:43:49;;;;;;;;;;;10.40;99.90;;;;;;4994151;28;19922;-67
2022/11/06 08:46:15;;;;;;;;;;;10.30;99.90;;;;;;4994748;28;20007;-67
2022/11/06 08:48:40;;;;;;;;;;;10.30;99.90;;;;;;5009997;28;20013;-68
2022/11/06 08:51:06;;;;;;;;;;;10.30;99.90;;;;;;5022340;28;19928;-67
2022/11/06 08:53:31;;;;;;;;;;;10.40;99.90;;;;;;5031159;28;19921;-67
2022/11/06 08:55:57;;;;;;;;;;;10.40;99.90;;;;;;4995027;28;19925;-68
2022/11/06 08:58:22;;;;;;;;;;;10.30;99.90;;;;;;5012801;28;19965;-67
2022/11/06 09:00:48;;;;;;;;;;;10.30;99.90;;;;;;5008870;28;20263;-68
2022/11/06 09:03:14;;;;;;;;;;;10.30;99.90;;;;;;5028199;28;19929;-68
2022/11/06 09:05:43;;;;;;;;;;;10.30;99.90;;;;;;5015862;28;19952;-69
2022/11/06 09:08:09;;;;;;;;;;;10.40;99.90;;;;;;5013330;28;20476;-68
2022/11/06 09:10:36;;;;;;;;;;;10.40;99.90;;;;;;5016014;28;19929;-68
2022/11/06 09:13:01;;;;;;;;;;;10.40;99.90;;;;;;5015226;28;19987;-68
2022/11/06 09:15:27;;;;;;;;;;;10.50;99.90;;;;;;5016139;28;19929;-68
2022/11/06 09:17:52;;;;;;;;;;;10.50;99.90;;;;;;5020351;28;20478;-68
2022/11/06 09:20:19;;;;;;;;;;;10.60;99.90;;;;;;5011098;28;19956;-67
2022/11/06 09:22:45;;;;;;;;;;;10.80;99.90;;;;;;5008900;28;19979;-68
2022/11/06 09:25:11;;;;;;;;;;;10.90;99.90;;;;;;5016615;28;19921;-68
2022/11/06 09:27:46;;;;;;;;;;;11.00;99.90;;;;;;5034640;28;19971;-68
2022/11/06 09:30:13;;;;;;;;;;;11.10;99.90;;;;;;4999487;28;19929;-68
2022/11/06 09:32:44;;;;;;;;;;;11.20;99.90;;;;;;5018077;28;19921;-68
2022/11/06 09:35:09;;;;;;;;;;;11.20;99.90;;;;;;5034709;28;19935;-67
2022/11/06 09:37:35;;;;;;;;;;;11.30;99.90;;;;;;5016817;28;19925;-68
2022/11/06 09:40:00;;;;;;;;;;;11.40;99.90;;;;;;5016937;28;20417;-68
2022/11/06 09:42:47;;;;;;;;;;;11.50;99.90;;;;;;5016368;28;19921;-68
2022/11/06 09:45:21;;;;;;;;;;;11.60;99.90;;;;;;5016451;28;19933;-68
2022/11/06 09:47:53;;;;;;;;;;;11.80;99.90;;;;;;5016458;28;19929;-68
2022/11/06 09:50:24;;;;;;;;;;;12.00;99.90;;;;;;5032884;28;19931;-68
2022/11/06 09:52:50;;;;;;;;;;;;;;;;;;5009562;28;19925;-68
2022/11/06 09:55:19;;;;;;;;;;;12.30;99.90;;;;;;5014169;28;19979;-68
2022/11/06 09:57:56;;;;;;;;;;;12.50;99.90;;;;;;5014235;28;19925;-68
2022/11/06 10:00:21;;;;;;;;;;;12.50;99.90;;;;;;5020300;28;19928;-69
2022/11/06 10:02:51;;;;;;;;;;;12.60;99.90;;;;;;5014903;28;19921;-69
2022/11/06 10:05:21;;;;;;;;;;;12.60;99.90;;;;;;5015141;28;20431;-69
2022/11/06 10:07:50;;;;;;;;;;;12.50;99.90;;;;;;5018672;28;19929;-69
2022/11/06 10:10:17;;;;;;;;;;;12.30;99.90;;;;;;5030957;28;19925;-68
2022/11/06 10:12:46;;;;;;;;;;;12.30;99.90;;;;;;5014608;28;19959;-69
2022/11/06 10:15:26;;;;;;;;;;;12.20;99.90;;;;;;5012721;28;19936;-68
2022/11/06 10:18:10;;;;;;;;;;;12.20;99.90;;;;;;5013939;28;20382;-67
2022/11/06 10:20:36;;;;;;;;;;;12.20;99.90;;;;;;5015674;28;19929;-67
2022/11/06 10:23:03;;;;;;;;;;;12.20;99.90;;;;;;5022253;28;19925;-67
2022/11/06 10:25:38;;;;;;;;;;;12.20;99.90;;;;;;5013556;28;19925;-67
2022/11/06 10:28:11;;;;;;;;;;;12.20;99.90;;;;;;4999333;28;20022;-67
2022/11/06 10:30:43;;;;;;;;;;;12.30;99.90;;;;;;4999284;28;19944;-67
2022/11/06 10:33:09;;;;;;;;;;;12.30;99.90;;;;;;5019005;28;20401;-67
2022/11/06 10:35:54;;;;;;;;;;;12.30;99.90;;;;;;5030562;28;20012;-68
2022/11/06 10:38:26;;;;;;;;;;;12.30;99.90;;;;;;5023440;28;19921;-67
2022/11/06 10:40:53;;;;;;;;;;;12.40;99.90;;;;;;5015450;28;19928;-67
2022/11/06 10:43:39;;;;;;;;;;;12.40;99.90;;;;;;5031545;28;19928;-67
2022/11/06 10:46:23;;;;;;;;;;;12.40;99.90;;;;;;5011718;28;19925;-67
2022/11/06 10:48:51;;;;;;;;;;;12.30;99.90;;;;;;5029759;28;19929;-67
2022/11/06 10:51:36;;;;;;;;;;;12.30;99.90;;;;;;5015681;28;19990;-67
2022/11/06 10:54:20;;;;;;;;;;;12.30;99.90;;;;;;5031574;28;19955;-67
2022/11/06 10:56:48;;;;;;;;;;;12.30;99.90;;;;;;5028686;28;19921;-68
2022/11/06 10:59:15;;;;;;;;;;;12.30;99.90;;;;;;5017885;28;20338;-67
2022/11/06 11:01:40;;;;;;;;;;;12.30;99.90;;;;;;5028182;28;19971;-67
2022/11/06 11:04:05;;;;;;;;;;;12.40;99.90;;;;;;5031464;28;19956;-68
2022/11/06 11:06:31;;;;;;;;;;;12.40;99.90;;;;;;5024047;28;19928;-67
2022/11/06 11:08:57;;;;;;;;;;;12.40;99.90;;;;;;5032290;28;19983;-67
2022/11/06 11:11:23;;;;;;;;;;;12.40;99.90;;;;;;5016686;28;20402;-68
2022/11/06 11:13:50;;;;;;;;;;;12.40;99.90;;;;;;5009149;28;19921;-67
2022/11/06 11:16:17;;;;;;;;;;;12.40;99.90;;;;;;5011340;28;19928;-67
2022/11/06 11:18:44;;;;;;;;;;;12.40;99.90;;;;;;5031448;28;19967;-67
2022/11/06 11:21:19;;;;;;;;;;;12.20;99.90;;;;;;5002942;28;20032;-67
2022/11/06 11:23:44;;;;;;;;;;;12.20;99.90;;;;;;5009207;28;19979;-68
2022/11/06 11:26:27;;;;;;;;;;;12.20;99.90;;;;;;5023781;28;19933;-68
2022/11/06 11:28:54;;;;;;;;;;;12.20;99.90;;;;;;5008962;28;19925;-67
2022/11/06 11:31:26;;;;;;;;;;;12.20;99.90;;;;;;5014325;28;19931;-67
2022/11/06 11:33:55;;;;;;;;;;;12.20;99.90;;;;;;5025153;28;19956;-67
2022/11/06 11:36:20;;;;;;;;;;;12.10;99.90;;;;;;5003977;28;20436;-68
2022/11/06 11:38:46;;;;;;;;;;;12.10;99.90;;;;;;5030575;28;19925;-67
2022/11/06 11:41:18;;;;;;;;;;;12.10;99.90;;;;;;5029702;28;19932;-67
2022/11/06 11:43:54;;;;;;;;;;;12.10;99.90;;;;;;5014215;28;19932;-68
2022/11/06 11:46:20;;;;;;;;;;;12.10;99.90;;;;;;5029499;28;20036;-67
2022/11/06 11:48:47;;;;;;;;;;;12.10;99.90;;;;;;5013734;28;20646;-67
2022/11/06 11:51:15;;;;;;;;;;;12.10;99.90;;;;;;5018525;28;19956;-67
2022/11/06 11:53:41;;;;;;;;;;;12.20;99.90;;;;;;5027283;28;19927;-68
2022/11/06 11:56:12;;;;;;;;;;;12.20;99.90;;;;;;5029844;28;19929;-67
2022/11/06 11:58:38;;;;;;;;;;;12.20;99.90;;;;;;5016280;28;19983;-67
2022/11/06 12:01:04;;;;;;;;;;;12.30;99.90;;;;;;5013905;28;19928;-68
2022/11/06 12:03:36;;;;;;;;;;;12.40;99.90;;;;;;5011052;28;19971;-68
2022/11/06 12:06:07;;;;;;;;;;;12.40;99.90;;;;;;5028763;28;19929;-68
2022/11/06 12:08:33;;;;;;;;;;;12.50;99.90;;;;;;5029500;28;19925;-67
2022/11/06 12:11:02;;;;;;;;;;;12.50;99.90;;;;;;5024731;28;20011;-67
2022/11/06 12:13:27;;;;;;;;;;;12.60;99.90;;;;;;5011571;28;20294;-68
2022/11/06 12:16:04;;;;;;;;;;;12.60;99.90;;;;;;5030708;28;19925;-67
2022/11/06 12:18:35;;;;;;;;;;;12.70;99.90;;;;;;4996797;28;19921;-68
2022/11/06 12:21:20;;;;;;;;;;;12.70;99.90;;;;;;5011954;28;19925;-67
2022/11/06 12:23:52;;;;;;;;;;;12.80;99.90;;;;;;5013359;28;19964;-67
2022/11/06 12:26:36;;;;;;;;;;;12.90;99.90;;;;;;5027839;28;19935;-67
2022/11/06 12:29:14;;;;;;;;;;;12.90;99.90;;;;;;5008548;28;20280;-67
2022/11/06 12:31:41;;;;;;;;;;;13.00;99.90;;;;;;5011802;28;19921;-67
2022/11/06 12:34:12;;;;;;;;;;;13.20;99.90;;;;;;5020691;28;19956;-67
2022/11/06 12:36:42;;;;;;;;;;;13.40;99.90;;;;;;5014460;28;19936;-68
2022/11/06 12:39:13;;;;;;;;;;;13.50;99.90;;;;;;5011509;28;19921;-67
2022/11/06 12:41:45;;;;;;;;;;;13.60;99.90;;;;;;5035340;28;19921;-67
2022/11/06 12:44:11;;;;;;;;;;;13.60;99.90;;;;;;5019014;28;20011;-68
2022/11/06 12:46:57;;;;;;;;;;;13.60;99.90;;;;;;5012103;28;19925;-67
2022/11/06 12:49:41;;;;;;;;;;;13.70;99.90;;;;;;5033553;28;19929;-67
2022/11/06 12:52:11;;;;;;;;;;;13.70;99.90;;;;;;5032157;28;19945;-67
2022/11/06 12:54:55;;;;;;;;;;;13.70;99.90;;;;;;5007778;28;19925;-67
2022/11/06 12:57:21;;;;;;;;;;;13.60;99.90;;;;;;5030577;28;19925;-68
2022/11/06 13:00:04;;;;;;;;;;;13.50;99.90;;;;;;5032274;28;19921;-68
2022/11/06 13:02:29;;;;;;;;;;;13.40;99.90;;;;;;5015690;28;20325;-67
2022/11/06 13:05:21;;;;;;;;;;;13.30;99.90;;;;;;5015065;28;19925;-68
2022/11/06 13:08:05;;;;;;;;;;;13.10;99.90;;;;;;5004496;28;20061;-67
2022/11/06 13:10:42;;;;;;;;;;;13.00;99.90;;;;;;5015456;28;19948;-67
2022/11/06 13:13:16;;;;;;;;;;;12.90;99.90;;;;;;5028212;28;19925;-67
2022/11/06 13:15:58;;;;;;;;;;;12.80;99.90;;;;;;5018266;28;19997;-67
2022/11/06 13:18:32;;;;;;;;;;;12.80;99.90;;;;;;5033722;28;19947;-67
2022/11/06 13:21:04;;;;;;;;;;;12.80;99.90;;;;;;5033866;28;19987;-67
2022/11/06 13:23:33;;;;;;;;;;;12.70;99.90;;;;;;5028621;28;19928;-67
2022/11/06 13:26:08;;;;;;;;;;;12.70;99.90;;;;;;5023882;28;20356;-68
2022/11/06 13:28:40;;;;;;;;;;;12.60;99.90;;;;;;4996308;28;19925;-67
2022/11/06 13:31:07;;;;;;;;;;;12.50;99.90;;;;;;5026856;28;19932;-68
2022/11/06 13:33:38;;;;;;;;;;;12.60;99.90;;;;;;5009685;28;19933;-67
2022/11/06 13:36:04;;;;;;;;;;;12.60;99.90;;;;;;5016446;28;19948;-68
2022/11/06 13:38:38;;;;;;;;;;;12.50;99.90;;;;;;5016644;28;20012;-67
2022/11/06 13:41:11;;;;;;;;;;;12.50;99.90;;;;;;5015170;28;19921;-67
2022/11/06 13:43:42;;;;;;;;;;;12.50;99.90;;;;;;5016721;28;20003;-67
2022/11/06 13:46:26;;;;;;;;;;;12.50;99.90;;;;;;5031544;28;19932;-67
2022/11/06 13:49:00;;;;;;;;;;;12.50;99.90;;;;;;5014826;28;19933;-67
2022/11/06 13:51:45;;;;;;;;;;;12.40;99.90;;;;;;5013263;28;19964;-67
2022/11/06 13:54:25;;;;;;;;;;;12.40;99.90;;;;;;5005999;28;19934;-67
2022/11/06 13:57:07;;;;;;;;;;;12.30;99.90;;;;;;5016886;28;19921;-68
2022/11/06 13:59:55;;;;;;;;;;;12.30;99.90;;;;;;5039691;28;19921;-67
2022/11/06 14:02:26;;;;;;;;;;;12.30;99.90;;;;;;5033896;28;19929;-68
2022/11/06 14:05:18;;;;;;;;;;;12.20;99.90;;;;;;5029745;28;19967;-67
2022/11/06 14:07:44;;;;;;;;;;;12.20;99.90;;;;;;5005291;28;20361;-68
2022/11/06 14:10:19;;;;;;;;;;;12.20;99.90;;;;;;5031522;28;19947;-67
2022/11/06 14:12:46;;;;;;;;;;;12.20;99.90;;;;;;5018085;28;19969;-68
2022/11/06 14:15:13;;;;;;;;;;;12.10;99.90;;;;;;5009174;28;19925;-67
2022/11/06 14:17:39;;;;;;;;;;;12.10;99.90;;;;;;5033940;28;19987;-67
2022/11/06 14:20:26;;;;;;;;;;;12.10;99.90;;;;;;5010737;28;20578;-67
2022/11/06 14:22:51;;;;;;;;;;;12.10;99.90;;;;;;5028264;28;19924;-68
2022/11/06 14:25:26;;;;;;;;;;;12.10;99.90;;;;;;5007199;28;19952;-68
2022/11/06 14:27:52;;;;;;;;;;;12.00;99.90;;;;;;5029917;28;19940;-68
2022/11/06 14:30:17;;;;;;;;;;;12.00;99.90;;;;;;5020798;28;20321;-68
2022/11/06 14:32:44;;;;;;;;;;;11.90;99.90;;;;;;5021890;28;19929;-68
2022/11/06 14:35:28;;;;;;;;;;;11.90;99.90;;;;;;5021811;28;20028;-68
2022/11/06 14:38:14;;;;;;;;;;;11.90;99.90;;;;;;5036921;28;19965;-67
2022/11/06 14:40:39;;;;;;;;;;;11.90;99.90;;;;;;4995238;28;19970;-67
2022/11/06 14:43:19;;;;;;;;;;;11.90;99.90;;;;;;5018177;28;19929;-68
2022/11/06 14:46:04;;;;;;;;;;;11.80;99.90;;;;;;5021120;28;19925;-68
2022/11/06 14:48:42;;;;;;;;;;;11.80;99.90;;;;;;5019924;28;19979;-67